Time;durP1;ratioP1;P1;durP2;ratioP2;P2;SDS_P1;SDS_P2;PMS_P1;PMS_P2;Temp;Humidity;BMP_temperature;BMP_pressure;BME280_temperature;BME280_humidity;BME280_pressure;Samples;Min_cycle;Max_cycle;Signal;HPM_P1;HPM_P2
2022/02/09 00:00:25;;;;;;;0.50;0.50;;;;;;;5.19;82.40;98279.34;29416;240;64009;-62
2022/02/09 00:01:18;;;;;;;0.50;0.50;;;;;;;5.18;82.70;98279.56;29395;238;63004;-53
2022/02/09 00:02:04;;;;;;;0.60;0.60;;;;;;;5.20;82.58;98278.25;29417;199;63009;-62
2022/02/09 00:02:59;;;;;;;0.50;0.50;;;;;;;5.21;82.51;98279.06;29395;202;63004;-63
2022/02/09 00:03:31;;;;;;;0.50;0.50;;;;;;;5.21;82.18;98277.22;29395;314;63008;-62
2022/02/09 00:06:03;;;;;;;0.50;0.50;;;;;;;5.22;82.03;98281.53;29395;197;63000;-63
2022/02/09 00:08:27;;;;;;;0.52;0.52;;;;;;;5.30;81.63;98269.66;29395;242;63009;-63
2022/02/09 00:09:00;;;;;;;0.50;0.50;;;;;;;5.31;81.67;98268.63;29394;222;64004;-62
2022/02/09 00:09:31;;;;;;;0.50;0.50;;;;;;;5.31;81.72;98269.44;29395;231;63009;-63
2022/02/09 00:10:04;;;;;;;0.50;0.50;;;;;;;5.33;81.31;98271.91;29394;209;64004;-62
2022/02/09 00:10:41;;;;;;;0.50;0.50;;;;;;;5.33;81.49;98267.34;29394;219;64008;-63
2022/02/09 00:11:18;;;;;;;0.50;0.50;;;;;;;5.33;81.43;98261.97;29395;210;63005;-63
2022/02/09 00:12:49;;;;;;;0.50;0.50;;;;;;;5.34;81.57;98262.78;29395;204;63005;-63
2022/02/09 00:15:37;;;;;;;0.50;0.50;;;;;;;5.35;81.09;98259.88;29395;228;63009;-54
2022/02/09 00:16:37;;;;;;;0.60;0.60;;;;;;;5.35;81.33;98259.88;29394;310;64004;-62
2022/02/09 00:19:05;;;;;;;0.50;0.50;;;;;;;5.36;81.10;98261.50;29395;218;63009;-63
2022/02/09 00:21:47;;;;;;;0.50;0.50;;;;;;;5.40;81.28;98272.66;29394;209;64005;-61
2022/02/09 00:27:47;;;;;;;0.50;0.50;;;;;;;5.46;80.69;98279.00;29395;246;63005;-63
2022/02/09 00:28:34;;;;;;;0.60;0.60;;;;;;;5.46;80.41;98281.69;29395;238;63009;-63
2022/02/09 00:32:27;;;;;;;0.50;0.50;;;;;;;5.51;80.01;98287.22;29394;202;64009;-63
2022/02/09 00:35:14;;;;;;;0.52;0.52;;;;;;;5.50;80.51;98285.59;29417;259;63005;-63
2022/02/09 00:37:07;;;;;;;0.50;0.50;;;;;;;5.53;80.21;98277.87;29395;204;63005;-63
2022/02/09 00:37:40;;;;;;;0.50;0.50;;;;;;;5.55;79.71;98280.31;29394;199;64009;-63
2022/02/09 00:42:17;;;;;;;0.50;0.50;;;;;;;5.66;79.22;98282.25;29395;218;63007;-62
2022/02/09 00:58:48;;;;;;;0.50;0.50;;;;;;;5.63;79.53;98282.72;29395;297;63004;-63
2022/02/09 01:39:47;;;;;;;0.50;0.50;;;;;;;5.48;79.28;98252.69;29395;198;63004;-55
2022/02/09 01:51:10;;;;;;;0.60;0.60;;;;;;;5.46;79.50;98238.63;29395;197;63004;-63
2022/02/09 01:55:28;;;;;;;0.50;0.50;;;;;;;5.38;79.21;98237.06;29401;215;63005;-62
2022/02/09 01:56:02;;;;;;;0.50;0.50;;;;;;;5.38;78.71;98235.19;29396;281;63009;-55
2022/02/09 01:56:36;;;;;;;0.50;0.50;;;;;;;5.38;78.64;98237.88;29395;206;64005;-62
2022/02/09 01:57:13;;;;;;;0.50;0.50;;;;;;;5.38;78.91;98237.06;29396;226;63015;-62
2022/02/09 01:57:48;;;;;;;0.55;0.55;;;;;;;5.38;78.98;98237.06;29396;213;63005;-56
2022/02/09 01:58:21;;;;;;;0.50;0.50;;;;;;;5.38;79.06;98237.06;29396;332;63009;-55
2022/02/09 01:58:53;;;;;;;0.50;0.50;;;;;;;5.38;78.91;98237.06;29396;204;63005;-55
2022/02/09 01:59:24;;;;;;;0.50;0.50;;;;;;;5.35;79.01;98232.97;29396;197;63009;-56
2022/02/09 01:59:55;;;;;;;0.50;0.50;;;;;;;5.35;78.85;98232.97;29396;220;63004;-63
2022/02/09 02:00:27;;;;;;;0.50;0.50;;;;;;;5.35;79.06;98235.66;29396;280;63009;-55
2022/02/09 02:00:59;;;;;;;0.50;0.50;;;;;;;5.33;78.98;98235.06;29396;300;63004;-63
2022/02/09 02:01:31;;;;;;;0.50;0.50;;;;;;;5.35;79.10;98230.25;29396;197;63009;-61
2022/02/09 02:02:03;;;;;;;0.50;0.50;;;;;;;5.35;79.10;98232.97;29395;220;64004;-62
2022/02/09 02:02:34;;;;;;;0.50;0.50;;;;;;;5.37;78.74;98232.72;29396;202;63008;-63
2022/02/09 02:03:05;;;;;;;0.50;0.50;;;;;;;5.42;78.79;98229.34;29396;253;63005;-55
2022/02/09 02:03:38;;;;;;;0.50;0.50;;;;;;;5.43;78.33;98228.31;29396;203;63009;-63
2022/02/09 02:04:09;;;;;;;0.52;0.52;;;;;;;5.45;78.61;98239.69;29396;229;63005;-62
2022/02/09 02:04:40;;;;;;;0.50;0.50;;;;;;;5.45;78.46;98232.44;29396;252;63009;-63
2022/02/09 02:05:11;;;;;;;0.50;0.50;;;;;;;5.47;78.33;98234.88;29396;212;63005;-55
2022/02/09 02:05:46;;;;;;;0.60;0.60;;;;;;;5.47;78.10;98229.50;29396;216;63009;-55
2022/02/09 02:06:19;;;;;;;0.50;0.50;;;;;;;5.47;78.35;98229.50;29396;218;63005;-56
2022/02/09 02:06:52;;;;;;;0.50;0.50;;;;;;;5.47;78.30;98230.31;29396;307;63009;-63
2022/02/09 02:08:22;;;;;;;0.50;0.50;;;;;;;5.45;78.25;98228.91;29396;265;63009;-56
2022/02/09 02:08:54;;;;;;;0.50;0.50;;;;;;;5.44;78.49;98229.97;29395;266;64004;-62
2022/02/09 02:09:26;;;;;;;0.50;0.50;;;;;;;5.42;78.21;98226.66;29396;233;63009;-55
2022/02/09 02:10:04;;;;;;;0.50;0.50;;;;;;;5.43;78.58;98231.81;29396;232;63004;-55
2022/02/09 02:10:50;;;;;;;0.50;0.50;;;;;;;5.43;78.35;98225.63;29396;203;63009;-62
2022/02/09 02:11:32;;;;;;;0.50;0.50;;;;;;;5.41;77.99;98219.66;29396;197;63005;-63
2022/02/09 02:12:18;;;;;;;0.50;0.50;;;;;;;5.40;78.32;98221.50;29396;339;63009;-63
2022/02/09 02:14:13;;;;;;;0.60;0.60;;;;;;;5.40;78.14;98218.81;29396;258;63009;-62
2022/02/09 02:14:51;;;;;;;0.50;0.50;;;;;;;5.39;78.58;98218.00;29396;290;63004;-56
2022/02/09 02:16:42;;;;;;;0.60;0.60;;;;;;;5.39;78.37;98212.63;29396;197;63004;-63
2022/02/09 02:17:36;;;;;;;0.50;0.50;;;;;;;5.41;77.96;98214.25;29396;224;63008;-63
2022/02/09 02:18:10;;;;;;;0.50;0.50;;;;;;;5.43;77.66;98201.41;29395;337;64005;-62
2022/02/09 02:18:45;;;;;;;0.50;0.50;;;;;;;5.45;77.62;98210.06;29396;219;63009;-61
2022/02/09 02:20:24;;;;;;;0.50;0.50;;;;;;;5.42;77.48;98205.97;29396;252;63022;-63
2022/02/09 02:21:19;;;;;;;0.50;0.50;;;;;;;5.41;77.86;98198.09;29396;315;63005;-64
2022/02/09 02:22:15;;;;;;;0.50;0.50;;;;;;;5.46;77.42;98200.94;29396;231;63009;-54
2022/02/09 02:25:42;;;;;;;0.50;0.50;;;;;;;5.44;77.69;98203.88;29396;204;63008;-55
2022/02/09 02:26:36;;;;;;;0.50;0.50;;;;;;;5.45;77.67;98202.00;29418;211;63000;-63
2022/02/09 02:29:47;;;;;;;0.50;0.50;;;;;;;5.43;77.74;98198.69;29395;202;64009;-61
2022/02/09 02:30:40;;;;;;;0.50;0.50;;;;;;;5.42;77.25;98195.19;29396;255;63004;-63
2022/02/09 02:32:35;;;;;;;0.60;0.60;;;;;;;5.43;77.72;98196.00;29396;211;63004;-63
2022/02/09 02:33:45;;;;;;;0.50;0.50;;;;;;;5.42;77.05;98189.00;29396;204;63009;-55
2022/02/09 02:36:28;;;;;;;0.50;0.50;;;;;;;5.39;77.65;98196.47;29397;227;63005;-55
2022/02/09 02:38:20;;;;;;;0.50;0.50;;;;;;;5.41;77.71;98198.09;29397;241;63004;-57
2022/02/09 02:43:51;;;;;;;0.50;0.50;;;;;;;5.48;76.66;98193.47;29397;236;63015;-55
2022/02/09 02:46:47;;;;;;;0.50;0.50;;;;;;;5.45;77.16;98183.16;29396;257;64008;-55
2022/02/09 02:47:37;;;;;;;0.60;0.60;;;;;;;5.45;77.46;98185.84;29397;204;63005;-64
2022/02/09 02:59:46;;;;;;;0.60;0.60;;;;;;;5.48;76.73;98178.13;29396;198;63013;-63
2022/02/09 03:07:47;;;;;;;0.60;0.60;;;;;;;5.52;76.20;98178.50;29396;204;63005;-62
2022/02/09 03:12:40;;;;;;;0.52;0.52;;;;;;;5.43;77.35;98185.25;29396;280;63014;-63
2022/02/09 03:13:19;;;;;;;0.60;0.60;;;;;;;5.41;77.41;98193.53;29395;214;64005;-54
2022/02/09 03:13:57;;;;;;;7.12;6.82;;;;;;;5.42;77.27;98189.00;29396;264;63009;-63
2022/02/09 03:16:40;;;;;;;0.55;0.55;;;;;;;5.46;77.08;98184.78;29396;233;63004;-62
2022/02/09 03:17:17;;;;;;;0.60;0.60;;;;;;;5.46;76.94;98187.47;29396;305;63018;-63
2022/02/09 03:18:04;;;;;;;0.50;0.50;;;;;;;5.46;76.94;98187.47;29396;226;63005;-64
2022/02/09 03:20:33;;;;;;;0.60;0.60;;;;;;;5.50;76.70;98181.41;29396;232;63009;-63
2022/02/09 03:22:17;;;;;;;0.60;0.60;;;;;;;5.54;76.37;98171.00;29396;251;63009;-64
2022/02/09 03:22:58;;;;;;;0.60;0.60;;;;;;;5.53;76.44;98172.88;29396;240;63004;-65
2022/02/09 03:25:06;;;;;;;0.50;0.50;;;;;;;5.54;76.21;98166.44;29395;210;64004;-63
2022/02/09 03:25:48;;;;;;;0.60;0.60;;;;;;;5.56;75.93;98174.28;29396;235;63009;-62
2022/02/09 03:42:47;;;;;;;0.60;0.60;;;;;;;5.47;76.94;98154.13;29395;198;63005;-62
2022/02/09 03:43:55;;;;;;;0.60;0.60;;;;;;;5.46;76.98;98158.69;29395;237;63009;-63
2022/02/09 03:46:46;;;;;;;0.60;0.60;;;;;;;5.43;77.28;98155.63;29395;219;63004;-62
2022/02/09 03:47:40;;;;;;;0.60;0.60;;;;;;;5.42;77.15;98156.69;29393;219;64009;-62
2022/02/09 03:49:15;;;;;;;0.60;0.60;;;;;;;5.44;77.13;98165.34;29395;225;63009;-62
2022/02/09 03:51:12;;;;;;;0.60;0.60;;;;;;;5.50;76.96;98165.25;29395;237;63009;-57
2022/02/09 03:51:58;;;;;;;0.52;0.52;;;;;;;5.53;76.04;98158.59;29395;273;63008;-55
2022/02/09 03:52:52;;;;;;;0.50;0.50;;;;;;;5.56;75.76;98160.81;29393;238;64009;-55
2022/02/09 03:55:24;;;;;;;0.60;0.60;;;;;;;5.56;76.02;98169.72;29395;214;63001;-55
2022/02/09 03:57:47;;;;;;;0.60;0.60;;;;;;;5.55;76.00;98164.56;29393;203;64009;-55
2022/02/09 03:58:18;;;;;;;0.57;0.57;;;;;;;5.55;76.07;98156.47;29395;207;63005;-64
2022/02/09 03:58:51;;;;;;;0.50;0.50;;;;;;;5.55;76.09;98157.28;29395;204;63009;-62
2022/02/09 03:59:23;;;;;;;0.50;0.50;;;;;;;5.55;76.08;98160.00;29395;236;63004;-62
2022/02/09 03:59:57;;;;;;;0.52;0.52;;;;;;;5.55;75.80;98160.00;29394;202;63004;-63
2022/02/09 04:00:34;;;;;;;0.50;0.50;;;;;;;5.55;76.22;98156.47;29395;246;63004;-63
2022/02/09 04:01:05;;;;;;;0.60;0.60;;;;;;;5.55;75.93;98159.16;29395;263;63008;-63
2022/02/09 04:01:39;;;;;;;0.50;0.50;;;;;;;5.54;75.99;98162.94;29395;208;63004;-62
2022/02/09 04:02:11;;;;;;;0.50;0.50;;;;;;;5.53;76.05;98158.59;29395;289;63021;-62
2022/02/09 04:02:47;;;;;;;0.50;0.50;;;;;;;5.54;76.18;98160.25;29395;294;63005;-57
2022/02/09 04:03:22;;;;;;;0.60;0.60;;;;;;;5.55;76.00;98156.47;29393;213;64009;-62
2022/02/09 04:03:53;;;;;;;0.50;0.50;;;;;;;5.56;75.59;98158.13;29395;216;63011;-62
2022/02/09 04:04:24;;;;;;;0.50;0.50;;;;;;;5.58;75.91;98156.03;29395;211;63009;-61
2022/02/09 04:04:57;;;;;;;0.60;0.60;;;;;;;5.57;75.72;98154.38;29395;207;63005;-63
2022/02/09 04:05:28;;;;;;;0.60;0.60;;;;;;;5.57;75.51;98159.75;29395;202;63009;-62
2022/02/09 04:06:00;;;;;;;0.60;0.60;;;;;;;5.56;75.83;98163.50;29393;298;64005;-62
2022/02/09 04:06:34;;;;;;;0.55;0.55;;;;;;;5.55;75.69;98164.56;29395;238;63009;-63
2022/02/09 04:07:10;;;;;;;0.50;0.50;;;;;;;5.53;75.97;98158.59;29393;199;64004;-63
2022/02/09 04:07:46;;;;;;;0.50;0.50;;;;;;;5.52;76.31;98163.16;29395;200;63009;-63
2022/02/09 04:08:19;;;;;;;0.50;0.50;;;;;;;5.51;76.38;98161.53;29395;236;63004;-63
2022/02/09 04:08:56;;;;;;;0.60;0.60;;;;;;;5.50;76.51;98159.06;29395;219;63008;-63
2022/02/09 04:09:31;;;;;;;0.50;0.50;;;;;;;5.47;76.60;98154.94;29395;268;63005;-62
2022/02/09 04:10:05;;;;;;;0.50;0.50;;;;;;;5.44;76.98;98157.28;29395;209;63009;-63
2022/02/09 04:10:50;;;;;;;0.50;0.50;;;;;;;5.43;76.90;98161.03;29395;220;63005;-63
2022/02/09 04:11:31;;;;;;;0.60;0.60;;;;;;;5.42;76.81;98154.00;29395;213;63009;-63
2022/02/09 04:12:13;;;;;;;0.52;0.52;;;;;;;5.42;77.24;98157.50;29395;204;63005;-63
2022/02/09 04:13:02;;;;;;;0.50;0.50;;;;;;;5.39;77.37;98153.41;29393;217;64009;-63
2022/02/09 04:13:54;;;;;;;0.50;0.50;;;;;;;5.38;77.46;98157.13;29395;222;63005;-61
2022/02/09 04:15:42;;;;;;;0.60;0.60;;;;;;;5.36;77.62;98159.25;29417;233;63004;-63
2022/02/09 04:17:10;;;;;;;0.60;0.60;;;;;;;5.35;77.37;98151.38;29417;203;63005;-64
2022/02/09 04:20:03;;;;;;;0.60;0.60;;;;;;;5.31;77.58;98153.72;29395;248;63009;-63
2022/02/09 04:36:09;;;;;;;0.50;0.50;;;;;;;5.39;76.67;98148.00;29394;221;64009;-63
2022/02/09 04:36:45;;;;;;;0.60;0.60;;;;;;;5.35;77.15;98149.53;29395;336;63018;-63
2022/02/09 04:37:50;;;;;;;0.50;0.50;;;;;;;5.34;77.27;98149.75;29394;209;64004;-63
2022/02/09 04:39:32;;;;;;;0.50;0.50;;;;;;;5.31;77.67;98145.62;29395;199;63005;-63
2022/02/09 04:40:10;;;;;;;0.55;0.55;;;;;;;5.30;77.66;98146.69;29395;235;63009;-63
2022/02/09 04:42:22;;;;;;;0.50;0.50;;;;;;;5.30;77.90;98153.94;29394;222;64009;-63
2022/02/09 04:49:58;;;;;;;0.50;0.50;;;;;;;5.30;77.82;98153.94;29395;211;63009;-61
2022/02/09 04:50:35;;;;;;;0.50;0.50;;;;;;;5.30;78.13;98157.44;29395;255;63004;-61
2022/02/09 04:52:23;;;;;;;0.50;0.50;;;;;;;5.32;77.65;98152.66;29395;212;63004;-63
2022/02/09 04:53:14;;;;;;;0.50;0.50;;;;;;;5.33;77.48;98154.31;29417;197;63009;-63
2022/02/09 04:54:47;;;;;;;0.60;0.60;;;;;;;5.29;77.52;98146.91;29395;204;63005;-63
2022/02/09 04:56:28;;;;;;;0.50;0.50;;;;;;;5.29;77.97;98150.44;29395;224;63009;-64
2022/02/09 04:57:04;;;;;;;0.60;0.60;;;;;;;5.27;77.93;98139.06;29395;220;63005;-63
2022/02/09 04:57:44;;;;;;;0.50;0.50;;;;;;;5.28;77.58;98146.09;29394;413;64009;-63
2022/02/09 04:58:26;;;;;;;0.50;0.50;;;;;;;5.29;78.00;98139.66;29395;216;63004;-63
2022/02/09 05:00:18;;;;;;;0.50;0.50;;;;;;;5.31;77.70;98145.62;29395;210;63004;-63
2022/02/09 05:01:30;;;;;;;0.60;0.60;;;;;;;5.34;77.61;98141.66;29417;254;63008;-65
2022/02/09 05:03:12;;;;;;;0.50;0.50;;;;;;;5.29;77.61;98136.97;29394;240;64009;-62
2022/02/09 05:04:48;;;;;;;0.52;0.52;;;;;;;5.28;77.55;98137.19;29416;220;64009;-62
2022/02/09 05:18:29;;;;;;;0.50;0.50;;;;;;;5.13;77.40;98145.69;29395;233;63009;-63
2022/02/09 05:22:11;;;;;;;0.50;0.50;;;;;;;5.06;77.20;98144.97;29395;296;63009;-63
2022/02/09 05:23:09;;;;;;;0.50;0.50;;;;;;;5.07;77.15;98141.22;29395;205;63004;-64
2022/02/09 05:26:23;;;;;;;0.50;0.50;;;;;;;5.04;77.33;98144.38;29395;203;63005;-63
2022/02/09 05:27:04;;;;;;;0.50;0.50;;;;;;;5.01;77.65;98145.62;29394;199;64001;-63
2022/02/09 05:27:51;;;;;;;0.50;0.50;;;;;;;5.02;77.50;98146.47;29417;237;63004;-64
2022/02/09 05:28:22;;;;;;;0.52;0.52;;;;;;;5.09;77.37;98141.00;29395;304;63009;-63
2022/02/09 05:28:53;;;;;;;0.50;0.50;;;;;;;5.14;77.23;98144.66;29395;297;63004;-63
2022/02/09 05:29:26;;;;;;;0.50;0.50;;;;;;;5.17;76.73;98144.19;29395;211;63004;-62
2022/02/09 05:29:59;;;;;;;0.50;0.50;;;;;;;5.17;76.83;98136.13;29395;203;63004;-63
2022/02/09 05:30:30;;;;;;;0.60;0.60;;;;;;;5.15;77.17;98143.59;29395;213;63008;-63
2022/02/09 05:31:03;;;;;;;0.55;0.55;;;;;;;5.14;77.17;98143.84;29395;196;63004;-64
2022/02/09 05:31:36;;;;;;;0.50;0.50;;;;;;;5.11;77.00;98144.28;29394;236;64009;-55
2022/02/09 05:32:08;;;;;;;0.50;0.50;;;;;;;5.10;77.05;98138.09;29395;286;63005;-63
2022/02/09 05:32:39;;;;;;;0.50;0.50;;;;;;;5.11;77.41;98138.91;29394;262;64009;-62
2022/02/09 05:33:11;;;;;;;0.50;0.50;;;;;;;5.09;77.47;98136.44;29395;225;63005;-63
2022/02/09 05:33:44;;;;;;;0.50;0.50;;;;;;;5.08;77.49;98134.78;29395;228;63009;-61
2022/02/09 05:34:15;;;;;;;0.57;0.57;;;;;;;5.08;77.35;98132.09;29395;226;63005;-62
2022/02/09 05:34:46;;;;;;;0.50;0.50;;;;;;;5.09;77.40;98132.94;29395;314;63009;-63
2022/02/09 05:35:21;;;;;;;0.50;0.50;;;;;;;5.10;77.42;98138.09;29395;225;63004;-62
2022/02/09 05:35:52;;;;;;;0.50;0.50;;;;;;;5.11;77.34;98134.34;29395;202;63009;-63
2022/02/09 05:36:23;;;;;;;0.50;0.50;;;;;;;5.10;77.46;98138.09;29395;225;63004;-63
2022/02/09 05:36:56;;;;;;;0.60;0.60;;;;;;;5.12;77.52;98135.97;29395;224;63017;-63
2022/02/09 05:37:27;;;;;;;0.60;0.60;;;;;;;5.11;77.44;98144.28;29394;198;64004;-54
2022/02/09 05:37:59;;;;;;;0.60;0.60;;;;;;;5.12;77.68;98145.94;29395;222;63008;-62
2022/02/09 05:38:30;;;;;;;0.50;0.50;;;;;;;5.10;77.76;98138.09;29395;224;63005;-63
2022/02/09 05:39:04;;;;;;;0.52;0.52;;;;;;;5.11;77.82;98142.41;29395;300;63017;-62
2022/02/09 05:39:35;;;;;;;0.60;0.60;;;;;;;5.11;77.79;98139.72;29395;210;63005;-64
2022/02/09 05:40:07;;;;;;;0.52;0.52;;;;;;;5.12;77.75;98132.47;29395;202;63009;-63
2022/02/09 05:40:39;;;;;;;0.50;0.50;;;;;;;5.14;77.81;98139.28;29395;202;63005;-63
2022/02/09 05:41:11;;;;;;;0.50;0.50;;;;;;;5.15;77.77;98143.59;29394;362;64009;-54
2022/02/09 05:41:46;;;;;;;0.50;0.50;;;;;;;5.17;77.56;98146.06;29395;364;63005;-63
2022/02/09 05:42:17;;;;;;;0.60;0.60;;;;;;;5.16;77.53;98147.13;29395;222;63009;-63
2022/02/09 05:42:49;;;;;;;0.50;0.50;;;;;;;5.15;77.65;98151.69;29395;198;63004;-63
2022/02/09 05:43:23;;;;;;;0.50;0.50;;;;;;;5.14;77.47;98150.03;29395;206;63017;-64
2022/02/09 05:43:54;;;;;;;0.50;0.50;;;;;;;5.14;77.55;98146.53;29394;226;64004;-60
2022/02/09 05:44:26;;;;;;;0.50;0.50;;;;;;;5.13;77.54;98148.37;29395;198;63009;-63
2022/02/09 05:44:57;;;;;;;0.50;0.50;;;;;;;5.13;77.80;98147.56;29395;239;63004;-55
2022/02/09 05:45:42;;;;;;;0.60;0.60;;;;;;;5.12;77.52;98149.44;29395;211;63008;-66
2022/02/09 05:49:53;;;;;;;0.60;0.60;;;;;;;5.18;77.57;98145.84;29395;229;63005;-62
2022/02/09 05:50:35;;;;;;;0.50;0.50;;;;;;;5.19;77.36;98150.19;29395;236;63009;-62
2022/02/09 05:51:22;;;;;;;0.60;0.60;;;;;;;5.19;77.36;98147.50;29394;206;64004;-64
2022/02/09 05:52:00;;;;;;;0.60;0.60;;;;;;;5.22;77.38;98147.00;29395;199;63009;-63
2022/02/09 05:52:54;;;;;;;0.50;0.50;;;;;;;5.24;77.36;98147.59;29395;201;63004;-64
2022/02/09 05:53:27;;;;;;;0.60;0.60;;;;;;;5.30;77.31;98146.69;29417;225;63008;-63
2022/02/09 05:55:14;;;;;;;0.50;0.50;;;;;;;5.32;77.05;98141.91;29395;240;63009;-63
2022/02/09 05:55:52;;;;;;;0.50;0.50;;;;;;;5.30;76.92;98138.63;29394;207;63997;-62
2022/02/09 05:56:43;;;;;;;0.50;0.50;;;;;;;5.30;77.43;98143.19;29395;301;63009;-64
2022/02/09 05:57:28;;;;;;;0.50;0.50;;;;;;;5.29;77.24;98142.34;29417;281;63005;-63
2022/02/09 05:58:10;;;;;;;0.60;0.60;;;;;;;5.31;77.64;98145.62;29395;298;63009;-63
2022/02/09 05:58:46;;;;;;;0.50;0.50;;;;;;;5.35;77.71;98144.13;29394;197;64004;-62
2022/02/09 06:00:07;;;;;;;0.50;0.50;;;;;;;5.45;76.82;98142.78;29395;253;63004;-63
2022/02/09 06:00:41;;;;;;;0.50;0.50;;;;;;;5.48;76.74;98145.00;29395;196;63008;-61
2022/02/09 06:01:15;;;;;;;0.50;0.50;;;;;;;5.53;76.59;98137.88;29394;229;64005;-54
2022/02/09 06:01:46;;;;;;;0.60;0.60;;;;;;;5.55;76.15;98149.22;29395;202;63016;-62
2022/02/09 06:02:19;;;;;;;0.50;0.50;;;;;;;5.54;76.42;98134.16;29395;227;63010;-63
2022/02/09 06:02:53;;;;;;;0.80;0.80;;;;;;;5.54;76.35;98136.00;29395;199;63009;-63
2022/02/09 06:03:26;;;;;;;0.50;0.50;;;;;;;5.54;76.39;98133.31;29395;222;63005;-65
2022/02/09 06:03:58;;;;;;;0.50;0.50;;;;;;;5.55;76.53;98135.75;29395;219;63009;-63
2022/02/09 06:04:29;;;;;;;0.50;0.50;;;;;;;5.56;76.24;98136.56;29395;205;63005;-63
2022/02/09 06:05:00;;;;;;;0.50;0.50;;;;;;;5.54;76.56;98136.00;29395;207;63009;-63
2022/02/09 06:05:31;;;;;;;0.50;0.50;;;;;;;5.55;76.26;98145.72;29395;202;63004;-63
2022/02/09 06:06:03;;;;;;;0.50;0.50;;;;;;;5.56;76.34;98141.97;29395;202;63009;-63
2022/02/09 06:06:35;;;;;;;0.50;0.50;;;;;;;5.55;76.27;98134.94;29394;226;63995;-64
2022/02/09 06:07:07;;;;;;;0.50;0.50;;;;;;;5.56;76.50;98147.34;29395;210;63009;-56
2022/02/09 06:07:38;;;;;;;0.50;0.50;;;;;;;5.58;76.49;98151.44;29395;222;63004;-64
2022/02/09 06:08:10;;;;;;;0.50;0.50;;;;;;;5.58;76.28;98140.69;29395;208;63008;-62
2022/02/09 06:08:41;;;;;;;0.50;0.50;;;;;;;5.58;76.29;98139.88;29395;232;63005;-62
2022/02/09 06:09:12;;;;;;;0.50;0.50;;;;;;;5.57;76.35;98146.28;29394;369;64017;-68
2022/02/09 06:09:44;;;;;;;0.50;0.50;;;;;;;5.54;76.29;98150.31;29395;258;63005;-66
2022/02/09 06:10:19;;;;;;;0.50;0.50;;;;;;;5.53;76.55;98147.84;29395;198;63009;-66
2022/02/09 06:11:51;;;;;;;0.50;0.50;;;;;;;5.50;76.69;98148.28;29395;218;63009;-63
2022/02/09 06:12:30;;;;;;;0.50;0.50;;;;;;;5.50;76.98;98148.28;29395;196;63005;-63
2022/02/09 06:20:06;;;;;;;0.50;0.50;;;;;;;5.29;77.13;98147.75;29394;299;64009;-64
2022/02/09 06:20:42;;;;;;;0.50;0.50;;;;;;;5.29;77.04;98147.75;29395;270;63004;-63
2022/02/09 06:21:18;;;;;;;0.50;0.50;;;;;;;5.29;77.12;98146.91;29395;221;63009;-63
2022/02/09 06:21:50;;;;;;;0.50;0.50;;;;;;;5.28;77.45;98151.47;29394;235;63994;-62
2022/02/09 06:22:24;;;;;;;0.50;0.50;;;;;;;5.26;77.35;98150.88;29395;228;63008;-62
2022/02/09 06:22:55;;;;;;;0.50;0.50;;;;;;;5.25;77.09;98146.53;29395;198;63004;-64
2022/02/09 06:23:26;;;;;;;0.50;0.50;;;;;;;5.24;77.41;98155.66;29395;372;63008;-63
2022/02/09 06:23:57;;;;;;;0.60;0.60;;;;;;;5.23;77.07;98147.81;29395;219;63005;-64
2022/02/09 06:24:29;;;;;;;0.50;0.50;;;;;;;5.24;76.85;98149.47;29395;204;63009;-62
2022/02/09 06:25:01;;;;;;;0.52;0.52;;;;;;;5.23;77.00;98145.97;29395;222;63005;-63
2022/02/09 06:25:32;;;;;;;0.50;0.50;;;;;;;5.23;76.57;98147.81;29395;303;63009;-62
2022/02/09 06:26:05;;;;;;;0.60;0.60;;;;;;;5.22;76.58;98152.38;29395;223;63005;-63
2022/02/09 06:26:36;;;;;;;0.50;0.50;;;;;;;5.21;76.70;98147.22;29395;204;63009;-63
2022/02/09 06:27:12;;;;;;;0.50;0.50;;;;;;;5.20;76.42;98151.78;29394;218;64004;-64
2022/02/09 06:27:43;;;;;;;0.50;0.50;;;;;;;5.17;76.89;98149.56;29394;212;64009;-64
2022/02/09 06:28:15;;;;;;;0.50;0.50;;;;;;;5.15;76.86;98150.84;29395;202;63004;-63
2022/02/09 06:28:47;;;;;;;0.50;0.50;;;;;;;5.14;76.77;98146.53;29395;203;63009;-62
2022/02/09 06:29:19;;;;;;;0.50;0.50;;;;;;;5.14;76.86;98150.03;29395;206;63004;-62
2022/02/09 06:29:50;;;;;;;0.50;0.50;;;;;;;5.13;77.31;98158.34;29395;264;63008;-67
2022/02/09 06:30:22;;;;;;;0.50;0.50;;;;;;;5.11;77.26;98155.87;29395;196;63010;-65
2022/02/09 06:30:53;;;;;;;0.50;0.50;;;;;;;5.09;77.23;98152.56;29395;254;63009;-69
2022/02/09 06:31:26;;;;;;;0.50;0.50;;;;;;;5.09;77.53;98157.97;29395;240;63005;-66
2022/02/09 06:32:00;;;;;;;0.50;0.50;;;;;;;5.07;77.57;98149.28;29394;247;64009;-65
2022/02/09 06:32:32;;;;;;;0.50;0.50;;;;;;;5.07;77.55;98154.66;29395;231;63005;-65
2022/02/09 06:33:04;;;;;;;0.50;0.50;;;;;;;5.05;77.63;98151.38;29395;210;63009;-64
2022/02/09 06:33:35;;;;;;;0.50;0.50;;;;;;;5.05;77.76;98162.97;29395;329;63005;-66
2022/02/09 06:34:08;;;;;;;0.50;0.50;;;;;;;5.05;77.82;98154.06;29395;260;63009;-55
2022/02/09 06:34:42;;;;;;;0.50;0.50;;;;;;;5.05;77.88;98162.16;29395;211;63004;-66
2022/02/09 06:35:14;;;;;;;0.50;0.50;;;;;;;5.06;77.92;98166.47;29395;210;63009;-66
2022/02/09 06:35:47;;;;;;;0.50;0.50;;;;;;;5.07;77.86;98157.37;29395;227;63004;-64
2022/02/09 06:36:23;;;;;;;0.50;0.50;;;;;;;5.07;77.68;98160.06;29395;219;63009;-55
2022/02/09 06:37:00;;;;;;;0.50;0.50;;;;;;;5.07;77.97;98154.66;29394;259;64004;-55
2022/02/09 06:37:44;;;;;;;0.60;0.60;;;;;;;5.07;77.92;98154.66;29395;266;63008;-56
2022/02/09 06:38:17;;;;;;;0.50;0.50;;;;;;;5.06;77.92;98163.78;29394;197;64005;-54
2022/02/09 06:38:48;;;;;;;0.50;0.50;;;;;;;5.06;77.97;98163.78;29395;325;63009;-66
2022/02/09 06:39:20;;;;;;;0.50;0.50;;;;;;;5.07;77.91;98153.84;29395;315;63005;-65
2022/02/09 06:40:00;;;;;;;0.50;0.50;;;;;;;5.07;78.04;98153.84;29395;224;63009;-66
2022/02/09 06:40:32;;;;;;;0.50;0.50;;;;;;;5.07;78.10;98159.22;29417;219;63005;-66
2022/02/09 06:41:04;;;;;;;0.55;0.55;;;;;;;5.06;78.37;98158.41;29395;273;63009;-66
2022/02/09 06:41:39;;;;;;;0.60;0.60;;;;;;;5.05;77.99;98152.22;29395;204;63005;-64
2022/02/09 06:42:11;;;;;;;0.50;0.50;;;;;;;5.09;78.45;98157.13;29394;303;64009;-56
2022/02/09 06:42:43;;;;;;;0.50;0.50;;;;;;;5.09;78.43;98157.97;29395;284;63004;-56
2022/02/09 06:43:20;;;;;;;0.50;0.50;;;;;;;5.11;78.42;98155.87;29395;202;63009;-59
2022/02/09 06:43:52;;;;;;;0.50;0.50;;;;;;;5.19;78.06;98158.25;29395;218;63007;-66
2022/02/09 06:44:25;;;;;;;0.50;0.50;;;;;;;5.22;77.47;98154.25;29395;320;63009;-65
2022/02/09 06:45:02;;;;;;;0.60;0.60;;;;;;;5.22;77.51;98157.75;29395;208;63004;-56
2022/02/09 06:45:37;;;;;;;0.50;0.50;;;;;;;5.25;77.77;98151.94;29395;209;63009;-65
2022/02/09 06:46:09;;;;;;;0.50;0.50;;;;;;;5.25;77.57;98156.50;29395;273;63005;-65
2022/02/09 06:46:41;;;;;;;0.60;0.60;;;;;;;5.24;77.31;98154.84;29395;205;63009;-55
2022/02/09 06:47:12;;;;;;;0.60;0.60;;;;;;;5.22;77.35;98157.75;29394;218;64005;-56
2022/02/09 06:47:44;;;;;;;0.50;0.50;;;;;;;5.21;77.54;98150.75;29394;220;63999;-56
2022/02/09 06:48:18;;;;;;;0.50;0.50;;;;;;;5.22;77.43;98152.38;29395;240;63005;-65
2022/02/09 06:48:49;;;;;;;0.50;0.50;;;;;;;5.21;77.55;98149.91;29395;204;63009;-66
2022/02/09 06:49:21;;;;;;;0.50;0.50;;;;;;;5.21;77.83;98155.31;29395;289;63010;-66
2022/02/09 06:50:01;;;;;;;0.50;0.50;;;;;;;5.21;77.67;98150.75;29395;238;63009;-56
2022/02/09 06:50:35;;;;;;;0.50;0.50;;;;;;;5.21;77.77;98150.75;29395;233;63004;-55
2022/02/09 06:51:15;;;;;;;0.50;0.50;;;;;;;5.21;77.90;98155.31;29395;220;63009;-65
2022/02/09 06:51:47;;;;;;;0.50;0.50;;;;;;;5.20;77.95;98153.69;29395;328;63004;-55
2022/02/09 06:52:18;;;;;;;0.50;0.50;;;;;;;5.19;78.07;98158.25;29395;245;63008;-57
2022/02/09 06:53:01;;;;;;;0.50;0.50;;;;;;;5.20;77.78;98161.75;29394;201;64004;-65
2022/02/09 06:53:40;;;;;;;0.50;0.50;;;;;;;5.16;77.45;98153.31;29395;203;63009;-55
2022/02/09 06:54:32;;;;;;;0.50;0.50;;;;;;;5.15;76.97;98151.69;29395;332;63005;-56
2022/02/09 06:55:13;;;;;;;0.50;0.50;;;;;;;5.11;76.86;98150.47;29395;202;63009;-66
2022/02/09 06:55:50;;;;;;;;;;;;;;;5.06;76.84;98153.03;29996;982;6000;-56
2022/02/09 06:57:33;;;;;;;0.50;0.50;;;;;;;5.00;76.76;98154.75;29395;213;63009;-56
2022/02/09 06:58:15;;;;;;;0.50;0.50;;;;;;;4.97;77.02;98159.75;29394;267;64004;-56
2022/02/09 06:58:58;;;;;;;0.50;0.50;;;;;;;4.93;77.03;98154.00;29395;390;63009;-65
2022/02/09 06:59:30;;;;;;;0.50;0.50;;;;;;;4.89;77.41;98158.19;29395;235;63009;-66
2022/02/09 07:00:01;;;;;;;0.50;0.50;;;;;;;4.88;77.52;98163.78;29395;390;63008;-56